sensor_id;sensor_type;location;lat;lon;timestamp;P1;durP1;ratioP1;P2;durP2;ratioP2
23567;SDS011;11962;50.838;4.430;2022-12-07T00:01:32;16.25;;;10.02;;
23567;SDS011;11962;50.838;4.430;2022-12-07T00:04:00;24.27;;;10.40;;
23567;SDS011;11962;50.838;4.430;2022-12-07T00:06:41;17.60;;;10.65;;
23567;SDS011;11962;50.838;4.430;2022-12-07T00:09:12;16.38;;;10.70;;
23567;SDS011;11962;50.838;4.430;2022-12-07T00:11:40;17.75;;;11.38;;
23567;SDS011;11962;50.838;4.430;2022-12-07T00:14:07;17.02;;;11.30;;
23567;SDS011;11962;50.838;4.430;2022-12-07T00:16:36;18.38;;;11.38;;
23567;SDS011;11962;50.838;4.430;2022-12-07T00:19:03;17.35;;;11.95;;
23567;SDS011;11962;50.838;4.430;2022-12-07T00:21:33;18.48;;;12.00;;
23567;SDS011;11962;50.838;4.430;2022-12-07T00:24:09;15.73;;;10.98;;
23567;SDS011;11962;50.838;4.430;2022-12-07T00:26:37;18.75;;;11.57;;
23567;SDS011;11962;50.838;4.430;2022-12-07T00:29:05;20.63;;;12.77;;
23567;SDS011;11962;50.838;4.430;2022-12-07T00:31:35;18.17;;;11.57;;
23567;SDS011;11962;50.838;4.430;2022-12-07T00:34:04;20.13;;;12.20;;
23567;SDS011;11962;50.838;4.430;2022-12-07T00:36:31;18.73;;;12.40;;
23567;SDS011;11962;50.838;4.430;2022-12-07T00:38:57;19.90;;;12.20;;
23567;SDS011;11962;50.838;4.430;2022-12-07T00:41:24;22.95;;;13.13;;
23567;SDS011;11962;50.838;4.430;2022-12-07T00:43:51;18.52;;;12.45;;
23567;SDS011;11962;50.838;4.430;2022-12-07T00:46:18;21.75;;;13.07;;
23567;SDS011;11962;50.838;4.430;2022-12-07T00:48:45;20.70;;;13.38;;
23567;SDS011;11962;50.838;4.430;2022-12-07T00:51:12;20.60;;;13.18;;
23567;SDS011;11962;50.838;4.430;2022-12-07T00:53:39;17.40;;;12.05;;
23567;SDS011;11962;50.838;4.430;2022-12-07T00:56:08;19.67;;;12.77;;
23567;SDS011;11962;50.838;4.430;2022-12-07T00:58:37;19.83;;;13.23;;
23567;SDS011;11962;50.838;4.430;2022-12-07T01:01:03;17.63;;;12.68;;
23567;SDS011;11962;50.838;4.430;2022-12-07T01:03:30;23.67;;;13.52;;
23567;SDS011;11962;50.838;4.430;2022-12-07T01:05:56;18.50;;;13.07;;
23567;SDS011;11962;50.838;4.430;2022-12-07T01:08:28;23.02;;;14.13;;
23567;SDS011;11962;50.838;4.430;2022-12-07T01:10:58;21.20;;;13.70;;
23567;SDS011;11962;50.838;4.430;2022-12-07T01:13:29;22.75;;;13.60;;
23567;SDS011;11962;50.838;4.430;2022-12-07T01:15:58;21.48;;;14.07;;
23567;SDS011;11962;50.838;4.430;2022-12-07T01:18:26;22.05;;;13.57;;
23567;SDS011;11962;50.838;4.430;2022-12-07T01:21:12;22.20;;;14.00;;
23567;SDS011;11962;50.838;4.430;2022-12-07T01:23:52;21.25;;;13.35;;
23567;SDS011;11962;50.838;4.430;2022-12-07T01:26:22;21.80;;;13.35;;
23567;SDS011;11962;50.838;4.430;2022-12-07T01:28:49;20.88;;;12.68;;
23567;SDS011;11962;50.838;4.430;2022-12-07T01:31:17;21.15;;;12.90;;
23567;SDS011;11962;50.838;4.430;2022-12-07T01:33:46;20.13;;;12.60;;
23567;SDS011;11962;50.838;4.430;2022-12-07T01:38:54;22.98;;;13.85;;
23567;SDS011;11962;50.838;4.430;2022-12-07T01:41:26;19.08;;;13.15;;
23567;SDS011;11962;50.838;4.430;2022-12-07T01:46:48;22.70;;;13.05;;
23567;SDS011;11962;50.838;4.430;2022-12-07T01:51:51;21.48;;;13.13;;
23567;SDS011;11962;50.838;4.430;2022-12-07T01:54:31;20.20;;;12.63;;
23567;SDS011;11962;50.838;4.430;2022-12-07T01:56:59;23.50;;;13.23;;
23567;SDS011;11962;50.838;4.430;2022-12-07T01:59:26;17.92;;;13.00;;
23567;SDS011;11962;50.838;4.430;2022-12-07T02:01:52;18.73;;;12.02;;
23567;SDS011;11962;50.838;4.430;2022-12-07T02:04:20;19.85;;;13.38;;
23567;SDS011;11962;50.838;4.430;2022-12-07T02:06:47;21.40;;;12.57;;
23567;SDS011;11962;50.838;4.430;2022-12-07T02:09:13;17.02;;;12.73;;
23567;SDS011;11962;50.838;4.430;2022-12-07T02:11:39;17.20;;;12.23;;
23567;SDS011;11962;50.838;4.430;2022-12-07T02:14:06;18.75;;;12.15;;
23567;SDS011;11962;50.838;4.430;2022-12-07T02:30:12;19.23;;;12.05;;
23567;SDS011;11962;50.838;4.430;2022-12-07T02:35:25;16.55;;;12.27;;
23567;SDS011;11962;50.838;4.430;2022-12-07T02:44:15;19.02;;;12.05;;
23567;SDS011;11962;50.838;4.430;2022-12-07T02:46:44;26.00;;;12.35;;
23567;SDS011;11962;50.838;4.430;2022-12-07T02:49:16;20.60;;;12.98;;
23567;SDS011;11962;50.838;4.430;2022-12-07T02:51:42;19.55;;;11.98;;
23567;SDS011;11962;50.838;4.430;2022-12-07T02:54:16;18.38;;;11.43;;
23567;SDS011;11962;50.838;4.430;2022-12-07T03:08:04;16.80;;;9.40;;
23567;SDS011;11962;50.838;4.430;2022-12-07T03:11:08;15.55;;;9.95;;
23567;SDS011;11962;50.838;4.430;2022-12-07T03:13:41;17.02;;;9.82;;
23567;SDS011;11962;50.838;4.430;2022-12-07T03:19:38;12.68;;;8.63;;
23567;SDS011;11962;50.838;4.430;2022-12-07T03:22:07;17.50;;;9.77;;
23567;SDS011;11962;50.838;4.430;2022-12-07T03:24:37;13.38;;;8.95;;
23567;SDS011;11962;50.838;4.430;2022-12-07T03:27:08;16.10;;;9.45;;
23567;SDS011;11962;50.838;4.430;2022-12-07T03:29:43;12.73;;;9.05;;
23567;SDS011;11962;50.838;4.430;2022-12-07T03:32:14;12.90;;;8.80;;
23567;SDS011;11962;50.838;4.430;2022-12-07T03:35:09;14.52;;;8.20;;
23567;SDS011;11962;50.838;4.430;2022-12-07T03:37:49;13.52;;;8.48;;
23567;SDS011;11962;50.838;4.430;2022-12-07T03:40:33;14.02;;;8.18;;
23567;SDS011;11962;50.838;4.430;2022-12-07T03:43:04;12.23;;;7.72;;
23567;SDS011;11962;50.838;4.430;2022-12-07T03:45:37;15.63;;;9.20;;
23567;SDS011;11962;50.838;4.430;2022-12-07T03:48:10;14.90;;;9.20;;
23567;SDS011;11962;50.838;4.430;2022-12-07T03:51:07;13.68;;;9.30;;
23567;SDS011;11962;50.838;4.430;2022-12-07T03:56:36;14.80;;;9.63;;
23567;SDS011;11962;50.838;4.430;2022-12-07T03:59:02;15.02;;;9.48;;
23567;SDS011;11962;50.838;4.430;2022-12-07T04:01:28;17.20;;;9.88;;
23567;SDS011;11962;50.838;4.430;2022-12-07T04:03:54;13.43;;;9.45;;
23567;SDS011;11962;50.838;4.430;2022-12-07T04:06:20;17.98;;;9.75;;
23567;SDS011;11962;50.838;4.430;2022-12-07T04:08:45;13.95;;;9.38;;
23567;SDS011;11962;50.838;4.430;2022-12-07T04:14:13;17.60;;;9.80;;
23567;SDS011;11962;50.838;4.430;2022-12-07T04:16:46;13.02;;;9.10;;
23567;SDS011;11962;50.838;4.430;2022-12-07T04:19:13;14.20;;;9.52;;
23567;SDS011;11962;50.838;4.430;2022-12-07T04:21:39;15.35;;;9.32;;
23567;SDS011;11962;50.838;4.430;2022-12-07T04:24:05;14.38;;;9.77;;
23567;SDS011;11962;50.838;4.430;2022-12-07T04:26:31;16.98;;;9.68;;
23567;SDS011;11962;50.838;4.430;2022-12-07T04:28:57;12.50;;;9.02;;
23567;SDS011;11962;50.838;4.430;2022-12-07T04:31:23;13.80;;;10.00;;
23567;SDS011;11962;50.838;4.430;2022-12-07T04:33:48;15.15;;;9.85;;
23567;SDS011;11962;50.838;4.430;2022-12-07T04:36:14;18.13;;;10.27;;
23567;SDS011;11962;50.838;4.430;2022-12-07T04:38:40;15.20;;;9.25;;
23567;SDS011;11962;50.838;4.430;2022-12-07T04:41:18;14.40;;;9.63;;
23567;SDS011;11962;50.838;4.430;2022-12-07T04:43:43;16.58;;;9.98;;
23567;SDS011;11962;50.838;4.430;2022-12-07T04:46:09;17.73;;;10.70;;
23567;SDS011;11962;50.838;4.430;2022-12-07T04:48:35;16.02;;;9.68;;
23567;SDS011;11962;50.838;4.430;2022-12-07T04:51:02;13.10;;;8.85;;
23567;SDS011;11962;50.838;4.430;2022-12-07T04:53:28;15.27;;;9.77;;
23567;SDS011;11962;50.838;4.430;2022-12-07T04:55:54;15.68;;;10.40;;
23567;SDS011;11962;50.838;4.430;2022-12-07T04:58:19;19.25;;;10.52;;
23567;SDS011;11962;50.838;4.430;2022-12-07T05:00:45;16.33;;;11.48;;
23567;SDS011;11962;50.838;4.430;2022-12-07T05:03:11;18.58;;;11.32;;
23567;SDS011;11962;50.838;4.430;2022-12-07T05:05:39;18.42;;;11.70;;
23567;SDS011;11962;50.838;4.430;2022-12-07T05:08:06;18.63;;;11.77;;
23567;SDS011;11962;50.838;4.430;2022-12-07T05:10:32;17.42;;;11.45;;
23567;SDS011;11962;50.838;4.430;2022-12-07T05:12:57;20.05;;;11.65;;
23567;SDS011;11962;50.838;4.430;2022-12-07T05:15:23;18.48;;;11.38;;
23567;SDS011;11962;50.838;4.430;2022-12-07T05:17:49;16.70;;;10.73;;
23567;SDS011;11962;50.838;4.430;2022-12-07T05:20:14;19.55;;;11.18;;
23567;SDS011;11962;50.838;4.430;2022-12-07T05:22:40;20.85;;;11.00;;
23567;SDS011;11962;50.838;4.430;2022-12-07T05:25:15;16.90;;;10.55;;
23567;SDS011;11962;50.838;4.430;2022-12-07T05:27:41;16.77;;;11.05;;
23567;SDS011;11962;50.838;4.430;2022-12-07T05:30:06;15.27;;;10.60;;
23567;SDS011;11962;50.838;4.430;2022-12-07T05:32:32;18.27;;;10.98;;
23567;SDS011;11962;50.838;4.430;2022-12-07T05:34:58;17.95;;;10.23;;
23567;SDS011;11962;50.838;4.430;2022-12-07T05:37:24;16.30;;;10.13;;
23567;SDS011;11962;50.838;4.430;2022-12-07T05:40:02;15.63;;;10.50;;
23567;SDS011;11962;50.838;4.430;2022-12-07T05:42:29;14.93;;;9.88;;
23567;SDS011;11962;50.838;4.430;2022-12-07T05:44:54;15.63;;;9.82;;
23567;SDS011;11962;50.838;4.430;2022-12-07T05:47:20;15.05;;;9.25;;
23567;SDS011;11962;50.838;4.430;2022-12-07T05:49:46;13.20;;;9.10;;
23567;SDS011;11962;50.838;4.430;2022-12-07T05:52:12;13.35;;;9.18;;
23567;SDS011;11962;50.838;4.430;2022-12-07T05:54:37;15.23;;;9.30;;
23567;SDS011;11962;50.838;4.430;2022-12-07T05:57:04;12.43;;;9.43;;
23567;SDS011;11962;50.838;4.430;2022-12-07T05:59:30;16.08;;;10.20;;
23567;SDS011;11962;50.838;4.430;2022-12-07T06:01:57;17.42;;;9.73;;
23567;SDS011;11962;50.838;4.430;2022-12-07T06:04:25;15.95;;;9.45;;
23567;SDS011;11962;50.838;4.430;2022-12-07T06:06:53;15.85;;;8.68;;
23567;SDS011;11962;50.838;4.430;2022-12-07T06:09:20;18.85;;;9.20;;
23567;SDS011;11962;50.838;4.430;2022-12-07T06:11:47;16.85;;;8.50;;
23567;SDS011;11962;50.838;4.430;2022-12-07T06:14:31;13.95;;;8.52;;
23567;SDS011;11962;50.838;4.430;2022-12-07T06:16:57;11.48;;;7.78;;
23567;SDS011;11962;50.838;4.430;2022-12-07T06:19:23;13.65;;;7.88;;
23567;SDS011;11962;50.838;4.430;2022-12-07T06:21:49;15.68;;;7.88;;
23567;SDS011;11962;50.838;4.430;2022-12-07T06:24:15;12.63;;;7.70;;
23567;SDS011;11962;50.838;4.430;2022-12-07T06:30:13;14.60;;;7.43;;
23567;SDS011;11962;50.838;4.430;2022-12-07T06:32:39;13.38;;;8.18;;
23567;SDS011;11962;50.838;4.430;2022-12-07T06:35:04;14.95;;;7.93;;
23567;SDS011;11962;50.838;4.430;2022-12-07T06:37:30;15.18;;;7.53;;
23567;SDS011;11962;50.838;4.430;2022-12-07T06:39:56;13.13;;;8.18;;
23567;SDS011;11962;50.838;4.430;2022-12-07T06:42:26;12.63;;;8.00;;
23567;SDS011;11962;50.838;4.430;2022-12-07T06:44:52;14.10;;;7.03;;
23567;SDS011;11962;50.838;4.430;2022-12-07T06:47:18;11.45;;;7.45;;
23567;SDS011;11962;50.838;4.430;2022-12-07T06:49:43;15.73;;;8.00;;
23567;SDS011;11962;50.838;4.430;2022-12-07T06:52:09;12.82;;;7.10;;
23567;SDS011;11962;50.838;4.430;2022-12-07T06:54:35;12.48;;;7.93;;
23567;SDS011;11962;50.838;4.430;2022-12-07T06:57:00;12.02;;;8.48;;
23567;SDS011;11962;50.838;4.430;2022-12-07T06:59:26;13.68;;;8.27;;
23567;SDS011;11962;50.838;4.430;2022-12-07T07:01:52;11.43;;;7.32;;
23567;SDS011;11962;50.838;4.430;2022-12-07T07:04:18;14.60;;;8.30;;
23567;SDS011;11962;50.838;4.430;2022-12-07T07:06:43;12.48;;;7.80;;
23567;SDS011;11962;50.838;4.430;2022-12-07T07:09:09;9.50;;;7.20;;
23567;SDS011;11962;50.838;4.430;2022-12-07T07:11:35;15.98;;;8.05;;
23567;SDS011;11962;50.838;4.430;2022-12-07T07:14:00;13.60;;;7.80;;
23567;SDS011;11962;50.838;4.430;2022-12-07T07:16:28;10.48;;;7.57;;
23567;SDS011;11962;50.838;4.430;2022-12-07T07:18:55;13.07;;;8.23;;
23567;SDS011;11962;50.838;4.430;2022-12-07T07:21:21;16.65;;;8.77;;
23567;SDS011;11962;50.838;4.430;2022-12-07T07:23:46;14.82;;;8.65;;
23567;SDS011;11962;50.838;4.430;2022-12-07T07:26:17;14.18;;;8.27;;
23567;SDS011;11962;50.838;4.430;2022-12-07T07:28:43;13.55;;;8.05;;
23567;SDS011;11962;50.838;4.430;2022-12-07T07:31:09;13.65;;;8.82;;
23567;SDS011;11962;50.838;4.430;2022-12-07T07:33:37;16.08;;;9.82;;
23567;SDS011;11962;50.838;4.430;2022-12-07T07:36:03;20.15;;;9.05;;
23567;SDS011;11962;50.838;4.430;2022-12-07T07:38:29;13.43;;;8.80;;
23567;SDS011;11962;50.838;4.430;2022-12-07T07:40:55;13.90;;;9.30;;
23567;SDS011;11962;50.838;4.430;2022-12-07T07:46:30;14.20;;;8.63;;
23567;SDS011;11962;50.838;4.430;2022-12-07T07:48:58;16.83;;;9.18;;
23567;SDS011;11962;50.838;4.430;2022-12-07T07:51:23;15.90;;;9.15;;
23567;SDS011;11962;50.838;4.430;2022-12-07T07:53:49;17.45;;;9.55;;
23567;SDS011;11962;50.838;4.430;2022-12-07T07:56:15;19.48;;;7.88;;
23567;SDS011;11962;50.838;4.430;2022-12-07T08:02:02;11.95;;;7.30;;
23567;SDS011;11962;50.838;4.430;2022-12-07T08:04:28;17.08;;;8.10;;
23567;SDS011;11962;50.838;4.430;2022-12-07T08:06:54;21.75;;;9.20;;
23567;SDS011;11962;50.838;4.430;2022-12-07T08:09:20;17.70;;;8.57;;
23567;SDS011;11962;50.838;4.430;2022-12-07T08:14:42;17.05;;;9.18;;
23567;SDS011;11962;50.838;4.430;2022-12-07T08:17:08;16.63;;;8.68;;
23567;SDS011;11962;50.838;4.430;2022-12-07T08:19:34;12.90;;;8.27;;
23567;SDS011;11962;50.838;4.430;2022-12-07T08:21:59;14.40;;;8.55;;
23567;SDS011;11962;50.838;4.430;2022-12-07T08:24:25;15.85;;;9.02;;
23567;SDS011;11962;50.838;4.430;2022-12-07T08:26:51;14.45;;;8.90;;
23567;SDS011;11962;50.838;4.430;2022-12-07T08:29:17;16.42;;;9.00;;
23567;SDS011;11962;50.838;4.430;2022-12-07T08:31:43;12.70;;;8.75;;
23567;SDS011;11962;50.838;4.430;2022-12-07T08:34:12;15.32;;;9.05;;
23567;SDS011;11962;50.838;4.430;2022-12-07T08:36:38;16.90;;;9.73;;
23567;SDS011;11962;50.838;4.430;2022-12-07T08:39:04;20.33;;;9.40;;
23567;SDS011;11962;50.838;4.430;2022-12-07T08:41:30;13.23;;;9.07;;
23567;SDS011;11962;50.838;4.430;2022-12-07T08:46:52;17.33;;;8.82;;
23567;SDS011;11962;50.838;4.430;2022-12-07T08:49:23;14.85;;;8.05;;
23567;SDS011;11962;50.838;4.430;2022-12-07T08:52:16;14.35;;;8.32;;
23567;SDS011;11962;50.838;4.430;2022-12-07T08:54:42;14.95;;;8.40;;
23567;SDS011;11962;50.838;4.430;2022-12-07T08:57:09;14.75;;;8.23;;
23567;SDS011;11962;50.838;4.430;2022-12-07T08:59:35;16.02;;;7.30;;
23567;SDS011;11962;50.838;4.430;2022-12-07T09:02:02;12.05;;;7.82;;
23567;SDS011;11962;50.838;4.430;2022-12-07T09:04:28;14.45;;;7.82;;
23567;SDS011;11962;50.838;4.430;2022-12-07T09:06:54;13.30;;;6.50;;
23567;SDS011;11962;50.838;4.430;2022-12-07T09:09:21;13.02;;;6.82;;
23567;SDS011;11962;50.838;4.430;2022-12-07T09:11:48;15.38;;;7.18;;
23567;SDS011;11962;50.838;4.430;2022-12-07T09:14:15;15.80;;;7.60;;
23567;SDS011;11962;50.838;4.430;2022-12-07T09:17:12;12.45;;;6.55;;
23567;SDS011;11962;50.838;4.430;2022-12-07T09:19:48;11.48;;;6.07;;
23567;SDS011;11962;50.838;4.430;2022-12-07T09:22:37;12.90;;;5.97;;
23567;SDS011;11962;50.838;4.430;2022-12-07T09:25:03;9.13;;;5.57;;
23567;SDS011;11962;50.838;4.430;2022-12-07T09:30:33;11.02;;;5.70;;
23567;SDS011;11962;50.838;4.430;2022-12-07T09:33:00;10.38;;;5.30;;
23567;SDS011;11962;50.838;4.430;2022-12-07T09:35:25;9.50;;;4.78;;
23567;SDS011;11962;50.838;4.430;2022-12-07T09:37:57;16.95;;;5.32;;
23567;SDS011;11962;50.838;4.430;2022-12-07T09:40:41;8.65;;;5.40;;
23567;SDS011;11962;50.838;4.430;2022-12-07T09:49:34;12.13;;;5.40;;
23567;SDS011;11962;50.838;4.430;2022-12-07T09:52:16;14.48;;;5.93;;
23567;SDS011;11962;50.838;4.430;2022-12-07T09:54:45;12.73;;;5.25;;
23567;SDS011;11962;50.838;4.430;2022-12-07T09:57:14;13.25;;;5.38;;
23567;SDS011;11962;50.838;4.430;2022-12-07T10:03:02;13.60;;;5.63;;
23567;SDS011;11962;50.838;4.430;2022-12-07T10:05:41;7.53;;;5.35;;
23567;SDS011;11962;50.838;4.430;2022-12-07T10:08:11;11.23;;;5.78;;
23567;SDS011;11962;50.838;4.430;2022-12-07T10:10:37;13.38;;;6.15;;
23567;SDS011;11962;50.838;4.430;2022-12-07T10:13:19;12.85;;;6.07;;
23567;SDS011;11962;50.838;4.430;2022-12-07T10:18:30;11.98;;;5.65;;
23567;SDS011;11962;50.838;4.430;2022-12-07T10:21:10;13.40;;;5.50;;
23567;SDS011;11962;50.838;4.430;2022-12-07T10:26:36;14.68;;;6.03;;
23567;SDS011;11962;50.838;4.430;2022-12-07T10:34:44;12.65;;;5.97;;
23567;SDS011;11962;50.838;4.430;2022-12-07T10:42:24;15.13;;;5.53;;
23567;SDS011;11962;50.838;4.430;2022-12-07T10:48:08;11.20;;;4.93;;
23567;SDS011;11962;50.838;4.430;2022-12-07T11:40:35;8.80;;;4.45;;
23567;SDS011;11962;50.838;4.430;2022-12-07T11:43:13;11.75;;;4.80;;
23567;SDS011;11962;50.838;4.430;2022-12-07T11:49:37;11.48;;;3.60;;
23567;SDS011;11962;50.838;4.430;2022-12-07T11:59:49;6.22;;;3.53;;
23567;SDS011;11962;50.838;4.430;2022-12-07T12:05:50;8.50;;;3.80;;
23567;SDS011;11962;50.838;4.430;2022-12-07T12:08:43;8.25;;;3.25;;
23567;SDS011;11962;50.838;4.430;2022-12-07T12:11:36;8.63;;;3.38;;
23567;SDS011;11962;50.838;4.430;2022-12-07T12:24:43;10.20;;;3.88;;
23567;SDS011;11962;50.838;4.430;2022-12-07T12:27:25;6.72;;;3.00;;
23567;SDS011;11962;50.838;4.430;2022-12-07T12:30:23;7.93;;;3.47;;
23567;SDS011;11962;50.838;4.430;2022-12-07T12:32:50;7.18;;;3.35;;
23567;SDS011;11962;50.838;4.430;2022-12-07T12:37:48;10.23;;;3.72;;
23567;SDS011;11962;50.838;4.430;2022-12-07T12:45:26;6.80;;;2.67;;
23567;SDS011;11962;50.838;4.430;2022-12-07T12:47:55;8.15;;;2.85;;
23567;SDS011;11962;50.838;4.430;2022-12-07T12:50:25;7.65;;;2.60;;
23567;SDS011;11962;50.838;4.430;2022-12-07T12:53:16;16.48;;;3.20;;
23567;SDS011;11962;50.838;4.430;2022-12-07T12:58:47;10.35;;;3.42;;
23567;SDS011;11962;50.838;4.430;2022-12-07T13:01:42;6.43;;;2.15;;
23567;SDS011;11962;50.838;4.430;2022-12-07T13:04:27;5.00;;;2.20;;
23567;SDS011;11962;50.838;4.430;2022-12-07T13:07:06;5.25;;;2.10;;
23567;SDS011;11962;50.838;4.430;2022-12-07T13:09:36;4.65;;;1.92;;
23567;SDS011;11962;50.838;4.430;2022-12-07T13:12:13;4.55;;;1.90;;
23567;SDS011;11962;50.838;4.430;2022-12-07T13:14:54;12.70;;;2.55;;
23567;SDS011;11962;50.838;4.430;2022-12-07T13:20:01;8.52;;;2.53;;
23567;SDS011;11962;50.838;4.430;2022-12-07T13:28:17;4.93;;;2.65;;
23567;SDS011;11962;50.838;4.430;2022-12-07T13:30:45;8.18;;;2.30;;
23567;SDS011;11962;50.838;4.430;2022-12-07T13:33:42;5.85;;;2.42;;
23567;SDS011;11962;50.838;4.430;2022-12-07T13:38:50;5.53;;;2.08;;
23567;SDS011;11962;50.838;4.430;2022-12-07T13:41:25;5.25;;;1.98;;
23567;SDS011;11962;50.838;4.430;2022-12-07T13:43:53;5.63;;;2.25;;
23567;SDS011;11962;50.838;4.430;2022-12-07T13:46:35;3.72;;;2.10;;
23567;SDS011;11962;50.838;4.430;2022-12-07T13:49:25;7.68;;;2.28;;
23567;SDS011;11962;50.838;4.430;2022-12-07T13:54:20;6.30;;;2.50;;
23567;SDS011;11962;50.838;4.430;2022-12-07T13:56:52;8.93;;;2.40;;
23567;SDS011;11962;50.838;4.430;2022-12-07T13:59:19;8.80;;;2.50;;
23567;SDS011;11962;50.838;4.430;2022-12-07T14:01:48;9.52;;;2.60;;
23567;SDS011;11962;50.838;4.430;2022-12-07T14:06:47;5.03;;;1.98;;
23567;SDS011;11962;50.838;4.430;2022-12-07T14:09:24;9.18;;;2.40;;
23567;SDS011;11962;50.838;4.430;2022-12-07T14:11:52;8.23;;;2.60;;
23567;SDS011;11962;50.838;4.430;2022-12-07T14:14:20;5.32;;;1.92;;
23567;SDS011;11962;50.838;4.430;2022-12-07T14:16:58;6.57;;;2.00;;
23567;SDS011;11962;50.838;4.430;2022-12-07T14:25:19;6.13;;;2.10;;
23567;SDS011;11962;50.838;4.430;2022-12-07T14:27:51;6.65;;;2.20;;
23567;SDS011;11962;50.838;4.430;2022-12-07T14:30:21;3.35;;;1.77;;
23567;SDS011;11962;50.838;4.430;2022-12-07T14:32:50;5.00;;;2.00;;
23567;SDS011;11962;50.838;4.430;2022-12-07T14:35:23;3.50;;;2.38;;
23567;SDS011;11962;50.838;4.430;2022-12-07T14:37:49;3.40;;;2.20;;
23567;SDS011;11962;50.838;4.430;2022-12-07T14:40:21;4.85;;;2.40;;
23567;SDS011;11962;50.838;4.430;2022-12-07T14:42:58;4.55;;;2.33;;
23567;SDS011;11962;50.838;4.430;2022-12-07T14:45:27;5.80;;;3.10;;
23567;SDS011;11962;50.838;4.430;2022-12-07T14:47:53;8.85;;;3.65;;
23567;SDS011;11962;50.838;4.430;2022-12-07T14:50:19;13.15;;;3.85;;
23567;SDS011;11962;50.838;4.430;2022-12-07T14:52:47;6.22;;;2.75;;
23567;SDS011;11962;50.838;4.430;2022-12-07T14:57:50;5.53;;;3.60;;
23567;SDS011;11962;50.838;4.430;2022-12-07T15:00:16;8.68;;;2.83;;
23567;SDS011;11962;50.838;4.430;2022-12-07T15:02:43;6.07;;;3.08;;
23567;SDS011;11962;50.838;4.430;2022-12-07T15:05:10;6.68;;;2.10;;
23567;SDS011;11962;50.838;4.430;2022-12-07T15:07:36;4.13;;;2.25;;
23567;SDS011;11962;50.838;4.430;2022-12-07T15:10:02;4.20;;;2.10;;
23567;SDS011;11962;50.838;4.430;2022-12-07T15:12:29;4.25;;;2.30;;
23567;SDS011;11962;50.838;4.430;2022-12-07T15:14:55;6.05;;;2.20;;
23567;SDS011;11962;50.838;4.430;2022-12-07T15:17:20;5.00;;;1.63;;
23567;SDS011;11962;50.838;4.430;2022-12-07T15:19:46;5.47;;;1.80;;
23567;SDS011;11962;50.838;4.430;2022-12-07T15:22:11;4.03;;;1.80;;
23567;SDS011;11962;50.838;4.430;2022-12-07T15:24:37;6.45;;;1.83;;
23567;SDS011;11962;50.838;4.430;2022-12-07T15:27:03;4.10;;;1.80;;
23567;SDS011;11962;50.838;4.430;2022-12-07T15:29:29;4.75;;;1.77;;
23567;SDS011;11962;50.838;4.430;2022-12-07T15:31:58;5.30;;;1.90;;
23567;SDS011;11962;50.838;4.430;2022-12-07T15:34:25;4.68;;;1.70;;
23567;SDS011;11962;50.838;4.430;2022-12-07T15:36:53;4.90;;;2.10;;
23567;SDS011;11962;50.838;4.430;2022-12-07T15:39:21;6.80;;;2.60;;
23567;SDS011;11962;50.838;4.430;2022-12-07T15:41:47;9.25;;;2.60;;
23567;SDS011;11962;50.838;4.430;2022-12-07T15:44:13;6.57;;;2.88;;
23567;SDS011;11962;50.838;4.430;2022-12-07T15:50:20;4.13;;;2.33;;
23567;SDS011;11962;50.838;4.430;2022-12-07T15:52:47;6.53;;;2.70;;
23567;SDS011;11962;50.838;4.430;2022-12-07T15:55:13;5.10;;;2.70;;
23567;SDS011;11962;50.838;4.430;2022-12-07T15:57:45;7.40;;;2.78;;
23567;SDS011;11962;50.838;4.430;2022-12-07T16:00:41;8.43;;;2.63;;
23567;SDS011;11962;50.838;4.430;2022-12-07T16:03:13;6.38;;;2.97;;
23567;SDS011;11962;50.838;4.430;2022-12-07T16:05:39;6.97;;;3.28;;
23567;SDS011;11962;50.838;4.430;2022-12-07T16:08:05;7.70;;;3.15;;
23567;SDS011;11962;50.838;4.430;2022-12-07T16:10:31;6.60;;;3.90;;
23567;SDS011;11962;50.838;4.430;2022-12-07T16:12:57;8.38;;;3.28;;
23567;SDS011;11962;50.838;4.430;2022-12-07T16:15:22;7.63;;;3.13;;
23567;SDS011;11962;50.838;4.430;2022-12-07T16:17:49;7.07;;;3.60;;
23567;SDS011;11962;50.838;4.430;2022-12-07T16:20:15;6.60;;;3.25;;
23567;SDS011;11962;50.838;4.430;2022-12-07T16:22:41;7.43;;;3.08;;
23567;SDS011;11962;50.838;4.430;2022-12-07T16:25:07;8.77;;;3.58;;
23567;SDS011;11962;50.838;4.430;2022-12-07T16:27:36;8.90;;;3.38;;
23567;SDS011;11962;50.838;4.430;2022-12-07T16:30:05;9.82;;;3.95;;
23567;SDS011;11962;50.838;4.430;2022-12-07T16:32:37;8.75;;;3.80;;
23567;SDS011;11962;50.838;4.430;2022-12-07T16:35:02;9.05;;;4.47;;
23567;SDS011;11962;50.838;4.430;2022-12-07T16:37:28;8.52;;;4.07;;
23567;SDS011;11962;50.838;4.430;2022-12-07T16:39:54;7.63;;;4.07;;
23567;SDS011;11962;50.838;4.430;2022-12-07T16:42:20;12.38;;;5.07;;
23567;SDS011;11962;50.838;4.430;2022-12-07T16:44:45;7.25;;;4.20;;
23567;SDS011;11962;50.838;4.430;2022-12-07T16:47:11;9.90;;;4.30;;
23567;SDS011;11962;50.838;4.430;2022-12-07T16:52:52;9.45;;;4.45;;
23567;SDS011;11962;50.838;4.430;2022-12-07T16:55:18;8.73;;;4.57;;
23567;SDS011;11962;50.838;4.430;2022-12-07T16:57:44;10.48;;;4.47;;
23567;SDS011;11962;50.838;4.430;2022-12-07T17:00:09;8.65;;;4.50;;
23567;SDS011;11962;50.838;4.430;2022-12-07T17:02:35;10.02;;;4.18;;
23567;SDS011;11962;50.838;4.430;2022-12-07T17:05:17;9.60;;;4.63;;
23567;SDS011;11962;50.838;4.430;2022-12-07T17:07:42;7.57;;;4.03;;
23567;SDS011;11962;50.838;4.430;2022-12-07T17:10:08;8.57;;;4.38;;
23567;SDS011;11962;50.838;4.430;2022-12-07T17:12:34;8.32;;;3.65;;
23567;SDS011;11962;50.838;4.430;2022-12-07T17:15:00;8.23;;;4.57;;
23567;SDS011;11962;50.838;4.430;2022-12-07T17:21:08;12.63;;;4.60;;
23567;SDS011;11962;50.838;4.430;2022-12-07T17:23:34;9.60;;;4.40;;
23567;SDS011;11962;50.838;4.430;2022-12-07T17:26:07;8.88;;;4.70;;
23567;SDS011;11962;50.838;4.430;2022-12-07T17:28:39;10.80;;;4.70;;
23567;SDS011;11962;50.838;4.430;2022-12-07T17:31:05;6.60;;;4.30;;
23567;SDS011;11962;50.838;4.430;2022-12-07T17:36:41;9.82;;;5.05;;
23567;SDS011;11962;50.838;4.430;2022-12-07T17:39:07;10.75;;;5.18;;
23567;SDS011;11962;50.838;4.430;2022-12-07T17:41:34;9.75;;;4.93;;
23567;SDS011;11962;50.838;4.430;2022-12-07T17:44:19;7.78;;;4.82;;
23567;SDS011;11962;50.838;4.430;2022-12-07T17:46:46;9.90;;;5.10;;
23567;SDS011;11962;50.838;4.430;2022-12-07T17:49:13;9.50;;;4.87;;
23567;SDS011;11962;50.838;4.430;2022-12-07T17:51:39;5.82;;;4.50;;
23567;SDS011;11962;50.838;4.430;2022-12-07T17:54:24;7.45;;;4.38;;
23567;SDS011;11962;50.838;4.430;2022-12-07T17:56:50;8.82;;;5.10;;
23567;SDS011;11962;50.838;4.430;2022-12-07T17:59:16;9.35;;;4.88;;
23567;SDS011;11962;50.838;4.430;2022-12-07T18:01:42;12.13;;;5.07;;
23567;SDS011;11962;50.838;4.430;2022-12-07T18:04:09;8.98;;;4.97;;
23567;SDS011;11962;50.838;4.430;2022-12-07T18:06:35;8.32;;;4.97;;
23567;SDS011;11962;50.838;4.430;2022-12-07T18:09:02;13.27;;;5.68;;
23567;SDS011;11962;50.838;4.430;2022-12-07T18:11:28;11.02;;;6.07;;
23567;SDS011;11962;50.838;4.430;2022-12-07T18:13:54;13.60;;;6.53;;
23567;SDS011;11962;50.838;4.430;2022-12-07T18:16:22;9.82;;;6.18;;
23567;SDS011;11962;50.838;4.430;2022-12-07T18:18:54;11.90;;;6.72;;
23567;SDS011;11962;50.838;4.430;2022-12-07T18:21:24;12.52;;;6.72;;
23567;SDS011;11962;50.838;4.430;2022-12-07T18:23:52;11.00;;;7.70;;
23567;SDS011;11962;50.838;4.430;2022-12-07T18:26:20;13.15;;;7.55;;
23567;SDS011;11962;50.838;4.430;2022-12-07T18:28:47;19.02;;;7.57;;
23567;SDS011;11962;50.838;4.430;2022-12-07T18:31:14;15.38;;;7.90;;
23567;SDS011;11962;50.838;4.430;2022-12-07T18:33:40;12.77;;;7.82;;